sensor_id;sensor_type;location;lat;lon;timestamp;P1;durP1;ratioP1;P2;durP2;ratioP2
23716;SDS011;22094;52.130;5.598;2023-07-29T00:00:44;7.55;;;5.70;;
23716;SDS011;22094;52.130;5.598;2023-07-29T00:03:10;7.60;;;5.60;;
23716;SDS011;22094;52.130;5.598;2023-07-29T00:05:39;7.28;;;5.55;;
23716;SDS011;22094;52.130;5.598;2023-07-29T00:08:05;5.68;;;5.15;;
23716;SDS011;22094;52.130;5.598;2023-07-29T00:10:32;5.30;;;4.80;;
23716;SDS011;22094;52.130;5.598;2023-07-29T00:13:00;5.60;;;4.93;;
23716;SDS011;22094;52.130;5.598;2023-07-29T00:15:26;7.05;;;4.97;;
23716;SDS011;22094;52.130;5.598;2023-07-29T00:17:51;5.63;;;4.60;;
23716;SDS011;22094;52.130;5.598;2023-07-29T00:20:17;4.70;;;4.30;;
23716;SDS011;22094;52.130;5.598;2023-07-29T00:22:43;5.95;;;4.70;;
23716;SDS011;22094;52.130;5.598;2023-07-29T00:25:09;6.63;;;4.97;;
23716;SDS011;22094;52.130;5.598;2023-07-29T00:27:34;8.27;;;4.55;;
23716;SDS011;22094;52.130;5.598;2023-07-29T00:30:00;5.38;;;4.32;;
23716;SDS011;22094;52.130;5.598;2023-07-29T00:32:27;5.25;;;4.13;;
23716;SDS011;22094;52.130;5.598;2023-07-29T00:34:54;6.07;;;4.30;;
23716;SDS011;22094;52.130;5.598;2023-07-29T00:37:23;5.78;;;4.20;;
23716;SDS011;22094;52.130;5.598;2023-07-29T00:39:48;5.13;;;4.30;;
23716;SDS011;22094;52.130;5.598;2023-07-29T00:42:14;5.03;;;4.47;;
23716;SDS011;22094;52.130;5.598;2023-07-29T00:44:40;5.55;;;4.70;;
23716;SDS011;22094;52.130;5.598;2023-07-29T00:47:05;6.22;;;4.82;;
23716;SDS011;22094;52.130;5.598;2023-07-29T00:49:32;5.45;;;4.38;;
23716;SDS011;22094;52.130;5.598;2023-07-29T00:51:58;6.88;;;4.57;;
23716;SDS011;22094;52.130;5.598;2023-07-29T00:54:24;6.82;;;4.47;;
23716;SDS011;22094;52.130;5.598;2023-07-29T00:56:49;6.18;;;5.20;;
23716;SDS011;22094;52.130;5.598;2023-07-29T00:59:16;6.78;;;5.20;;
23716;SDS011;22094;52.130;5.598;2023-07-29T01:01:42;6.35;;;4.80;;
23716;SDS011;22094;52.130;5.598;2023-07-29T01:04:07;6.18;;;4.45;;
23716;SDS011;22094;52.130;5.598;2023-07-29T01:09:03;5.07;;;4.20;;
23716;SDS011;22094;52.130;5.598;2023-07-29T01:14:29;5.15;;;3.92;;
23716;SDS011;22094;52.130;5.598;2023-07-29T01:17:04;5.05;;;4.10;;
23716;SDS011;22094;52.130;5.598;2023-07-29T01:19:40;6.20;;;3.92;;
23716;SDS011;22094;52.130;5.598;2023-07-29T01:22:24;6.18;;;4.10;;
23716;SDS011;22094;52.130;5.598;2023-07-29T01:24:51;5.03;;;4.53;;
23716;SDS011;22094;52.130;5.598;2023-07-29T01:27:16;5.88;;;4.60;;
23716;SDS011;22094;52.130;5.598;2023-07-29T01:29:42;6.15;;;5.05;;
23716;SDS011;22094;52.130;5.598;2023-07-29T01:32:10;6.43;;;5.80;;
23716;SDS011;22094;52.130;5.598;2023-07-29T01:34:45;8.70;;;5.93;;
23716;SDS011;22094;52.130;5.598;2023-07-29T01:37:19;7.05;;;5.60;;
23716;SDS011;22094;52.130;5.598;2023-07-29T01:39:50;9.75;;;5.70;;
23716;SDS011;22094;52.130;5.598;2023-07-29T01:42:21;11.20;;;6.28;;
23716;SDS011;22094;52.130;5.598;2023-07-29T01:44:47;9.45;;;5.93;;
23716;SDS011;22094;52.130;5.598;2023-07-29T01:47:13;7.88;;;6.18;;
23716;SDS011;22094;52.130;5.598;2023-07-29T01:49:38;10.32;;;6.15;;
23716;SDS011;22094;52.130;5.598;2023-07-29T01:52:04;9.85;;;6.40;;
23716;SDS011;22094;52.130;5.598;2023-07-29T01:54:30;10.65;;;5.47;;
23716;SDS011;22094;52.130;5.598;2023-07-29T01:56:56;7.47;;;6.00;;
23716;SDS011;22094;52.130;5.598;2023-07-29T01:59:21;7.53;;;6.13;;
23716;SDS011;22094;52.130;5.598;2023-07-29T02:01:47;7.22;;;6.15;;
23716;SDS011;22094;52.130;5.598;2023-07-29T02:04:13;10.40;;;6.30;;
23716;SDS011;22094;52.130;5.598;2023-07-29T02:06:39;11.65;;;7.10;;
23716;SDS011;22094;52.130;5.598;2023-07-29T02:09:05;10.75;;;7.35;;
23716;SDS011;22094;52.130;5.598;2023-07-29T02:11:30;12.02;;;7.20;;
23716;SDS011;22094;52.130;5.598;2023-07-29T02:13:56;10.27;;;7.15;;
23716;SDS011;22094;52.130;5.598;2023-07-29T02:16:22;9.90;;;6.95;;
23716;SDS011;22094;52.130;5.598;2023-07-29T02:18:48;11.18;;;6.85;;
23716;SDS011;22094;52.130;5.598;2023-07-29T02:21:17;11.65;;;7.20;;
23716;SDS011;22094;52.130;5.598;2023-07-29T02:23:43;10.07;;;7.47;;
23716;SDS011;22094;52.130;5.598;2023-07-29T02:26:08;11.43;;;8.05;;
23716;SDS011;22094;52.130;5.598;2023-07-29T02:28:34;8.90;;;6.82;;
23716;SDS011;22094;52.130;5.598;2023-07-29T02:31:15;10.55;;;7.40;;
23716;SDS011;22094;52.130;5.598;2023-07-29T02:33:43;11.50;;;8.07;;
23716;SDS011;22094;52.130;5.598;2023-07-29T02:36:10;13.40;;;8.35;;
23716;SDS011;22094;52.130;5.598;2023-07-29T02:38:37;16.30;;;8.32;;
23716;SDS011;22094;52.130;5.598;2023-07-29T02:41:02;13.98;;;8.70;;
23716;SDS011;22094;52.130;5.598;2023-07-29T02:43:28;14.15;;;9.48;;
23716;SDS011;22094;52.130;5.598;2023-07-29T02:45:53;15.52;;;10.55;;
23716;SDS011;22094;52.130;5.598;2023-07-29T02:48:19;16.55;;;10.43;;
23716;SDS011;22094;52.130;5.598;2023-07-29T02:50:45;21.30;;;10.80;;
23716;SDS011;22094;52.130;5.598;2023-07-29T02:53:10;17.98;;;11.30;;
23716;SDS011;22094;52.130;5.598;2023-07-29T02:55:39;19.27;;;11.55;;
23716;SDS011;22094;52.130;5.598;2023-07-29T02:58:05;20.48;;;11.43;;
23716;SDS011;22094;52.130;5.598;2023-07-29T03:00:32;19.58;;;12.30;;
23716;SDS011;22094;52.130;5.598;2023-07-29T03:02:58;17.00;;;11.70;;
23716;SDS011;22094;52.130;5.598;2023-07-29T03:05:24;17.55;;;11.77;;
23716;SDS011;22094;52.130;5.598;2023-07-29T03:07:52;18.25;;;11.35;;
23716;SDS011;22094;52.130;5.598;2023-07-29T03:10:18;18.45;;;11.57;;
23716;SDS011;22094;52.130;5.598;2023-07-29T03:12:43;19.23;;;11.52;;
23716;SDS011;22094;52.130;5.598;2023-07-29T03:15:09;18.00;;;11.80;;
23716;SDS011;22094;52.130;5.598;2023-07-29T03:17:35;20.90;;;12.25;;
23716;SDS011;22094;52.130;5.598;2023-07-29T03:20:00;18.95;;;11.23;;
23716;SDS011;22094;52.130;5.598;2023-07-29T03:22:26;20.63;;;11.80;;
23716;SDS011;22094;52.130;5.598;2023-07-29T03:24:52;20.00;;;11.38;;
23716;SDS011;22094;52.130;5.598;2023-07-29T03:27:17;18.20;;;10.98;;
23716;SDS011;22094;52.130;5.598;2023-07-29T03:29:43;19.25;;;11.93;;
23716;SDS011;22094;52.130;5.598;2023-07-29T03:32:09;18.70;;;11.25;;
23716;SDS011;22094;52.130;5.598;2023-07-29T03:34:34;18.73;;;10.90;;
23716;SDS011;22094;52.130;5.598;2023-07-29T03:37:00;16.80;;;11.13;;
23716;SDS011;22094;52.130;5.598;2023-07-29T03:39:26;19.73;;;11.30;;
23716;SDS011;22094;52.130;5.598;2023-07-29T03:41:52;19.38;;;10.73;;
23716;SDS011;22094;52.130;5.598;2023-07-29T03:44:18;19.60;;;10.50;;
23716;SDS011;22094;52.130;5.598;2023-07-29T03:46:44;16.90;;;10.48;;
23716;SDS011;22094;52.130;5.598;2023-07-29T03:49:10;16.75;;;10.85;;
23716;SDS011;22094;52.130;5.598;2023-07-29T03:51:36;22.63;;;10.93;;
23716;SDS011;22094;52.130;5.598;2023-07-29T03:54:01;16.60;;;10.70;;
23716;SDS011;22094;52.130;5.598;2023-07-29T03:56:28;16.00;;;10.23;;
23716;SDS011;22094;52.130;5.598;2023-07-29T03:59:01;17.48;;;10.70;;
23716;SDS011;22094;52.130;5.598;2023-07-29T04:01:29;14.80;;;10.75;;
23716;SDS011;22094;52.130;5.598;2023-07-29T04:03:55;18.77;;;9.95;;
23716;SDS011;22094;52.130;5.598;2023-07-29T04:06:21;13.80;;;9.20;;
23716;SDS011;22094;52.130;5.598;2023-07-29T04:08:47;17.48;;;10.10;;
23716;SDS011;22094;52.130;5.598;2023-07-29T04:11:14;16.77;;;9.73;;
23716;SDS011;22094;52.130;5.598;2023-07-29T04:13:39;14.55;;;9.05;;
23716;SDS011;22094;52.130;5.598;2023-07-29T04:16:06;17.38;;;9.57;;
23716;SDS011;22094;52.130;5.598;2023-07-29T04:18:32;16.45;;;9.50;;
23716;SDS011;22094;52.130;5.598;2023-07-29T04:20:58;14.57;;;9.45;;
23716;SDS011;22094;52.130;5.598;2023-07-29T04:23:23;15.48;;;9.20;;
23716;SDS011;22094;52.130;5.598;2023-07-29T04:25:49;15.43;;;9.23;;
23716;SDS011;22094;52.130;5.598;2023-07-29T04:28:15;15.15;;;8.75;;
23716;SDS011;22094;52.130;5.598;2023-07-29T04:30:40;12.35;;;8.15;;
23716;SDS011;22094;52.130;5.598;2023-07-29T04:33:06;11.73;;;8.02;;
23716;SDS011;22094;52.130;5.598;2023-07-29T04:35:32;12.77;;;7.80;;
23716;SDS011;22094;52.130;5.598;2023-07-29T04:37:58;11.90;;;7.88;;
23716;SDS011;22094;52.130;5.598;2023-07-29T04:40:23;9.45;;;7.47;;
23716;SDS011;22094;52.130;5.598;2023-07-29T04:42:50;11.45;;;7.22;;
23716;SDS011;22094;52.130;5.598;2023-07-29T04:45:16;10.43;;;7.15;;
23716;SDS011;22094;52.130;5.598;2023-07-29T04:47:42;10.40;;;7.10;;
23716;SDS011;22094;52.130;5.598;2023-07-29T04:50:08;8.75;;;6.55;;
23716;SDS011;22094;52.130;5.598;2023-07-29T04:52:34;9.80;;;7.00;;
23716;SDS011;22094;52.130;5.598;2023-07-29T04:54:59;8.73;;;6.22;;
23716;SDS011;22094;52.130;5.598;2023-07-29T04:57:25;9.20;;;6.22;;
23716;SDS011;22094;52.130;5.598;2023-07-29T04:59:51;9.02;;;6.15;;
23716;SDS011;22094;52.130;5.598;2023-07-29T05:02:16;7.28;;;5.55;;
23716;SDS011;22094;52.130;5.598;2023-07-29T05:04:42;9.45;;;6.28;;
23716;SDS011;22094;52.130;5.598;2023-07-29T05:07:08;10.52;;;6.07;;
23716;SDS011;22094;52.130;5.598;2023-07-29T05:09:33;6.70;;;6.00;;
23716;SDS011;22094;52.130;5.598;2023-07-29T05:11:59;8.80;;;5.32;;
23716;SDS011;22094;52.130;5.598;2023-07-29T05:14:25;7.82;;;5.53;;
23716;SDS011;22094;52.130;5.598;2023-07-29T05:16:51;5.75;;;4.93;;
23716;SDS011;22094;52.130;5.598;2023-07-29T05:19:17;8.10;;;5.47;;
23716;SDS011;22094;52.130;5.598;2023-07-29T05:21:43;6.47;;;4.90;;
23716;SDS011;22094;52.130;5.598;2023-07-29T05:24:08;6.13;;;5.05;;
23716;SDS011;22094;52.130;5.598;2023-07-29T05:26:34;5.88;;;4.70;;
23716;SDS011;22094;52.130;5.598;2023-07-29T05:29:00;6.35;;;4.07;;
23716;SDS011;22094;52.130;5.598;2023-07-29T05:31:26;7.70;;;4.50;;
23716;SDS011;22094;52.130;5.598;2023-07-29T05:33:52;7.80;;;4.22;;
23716;SDS011;22094;52.130;5.598;2023-07-29T05:36:18;4.60;;;4.18;;
23716;SDS011;22094;52.130;5.598;2023-07-29T05:38:44;7.80;;;4.80;;
23716;SDS011;22094;52.130;5.598;2023-07-29T05:41:10;6.03;;;4.63;;
23716;SDS011;22094;52.130;5.598;2023-07-29T05:43:36;6.38;;;4.68;;
23716;SDS011;22094;52.130;5.598;2023-07-29T05:46:02;6.05;;;4.95;;
23716;SDS011;22094;52.130;5.598;2023-07-29T05:48:28;6.47;;;4.57;;
23716;SDS011;22094;52.130;5.598;2023-07-29T05:50:54;8.43;;;4.97;;
23716;SDS011;22094;52.130;5.598;2023-07-29T05:53:19;8.00;;;4.75;;
23716;SDS011;22094;52.130;5.598;2023-07-29T05:55:45;7.25;;;4.60;;
23716;SDS011;22094;52.130;5.598;2023-07-29T05:58:11;7.00;;;4.95;;
23716;SDS011;22094;52.130;5.598;2023-07-29T06:00:36;6.28;;;5.00;;
23716;SDS011;22094;52.130;5.598;2023-07-29T06:03:02;6.82;;;5.00;;
23716;SDS011;22094;52.130;5.598;2023-07-29T06:05:28;6.93;;;4.43;;
23716;SDS011;22094;52.130;5.598;2023-07-29T06:07:54;7.70;;;5.13;;
23716;SDS011;22094;52.130;5.598;2023-07-29T06:10:20;5.22;;;4.43;;
23716;SDS011;22094;52.130;5.598;2023-07-29T06:12:45;6.15;;;5.00;;
23716;SDS011;22094;52.130;5.598;2023-07-29T06:15:11;7.55;;;5.38;;
23716;SDS011;22094;52.130;5.598;2023-07-29T06:17:38;6.20;;;4.85;;
23716;SDS011;22094;52.130;5.598;2023-07-29T06:20:04;8.32;;;4.97;;
23716;SDS011;22094;52.130;5.598;2023-07-29T06:22:30;7.18;;;5.13;;
23716;SDS011;22094;52.130;5.598;2023-07-29T06:24:56;6.45;;;4.80;;
23716;SDS011;22094;52.130;5.598;2023-07-29T06:27:22;7.10;;;5.05;;
23716;SDS011;22094;52.130;5.598;2023-07-29T06:29:49;8.30;;;5.20;;
23716;SDS011;22094;52.130;5.598;2023-07-29T06:32:15;9.68;;;5.53;;
23716;SDS011;22094;52.130;5.598;2023-07-29T06:34:40;6.80;;;4.40;;
23716;SDS011;22094;52.130;5.598;2023-07-29T06:37:06;5.72;;;4.65;;
23716;SDS011;22094;52.130;5.598;2023-07-29T06:39:32;6.55;;;4.63;;
23716;SDS011;22094;52.130;5.598;2023-07-29T06:41:58;6.25;;;4.30;;
23716;SDS011;22094;52.130;5.598;2023-07-29T06:44:24;6.03;;;4.43;;
23716;SDS011;22094;52.130;5.598;2023-07-29T06:46:49;6.22;;;4.60;;
23716;SDS011;22094;52.130;5.598;2023-07-29T06:49:15;6.38;;;4.57;;
23716;SDS011;22094;52.130;5.598;2023-07-29T06:51:41;5.00;;;4.47;;
23716;SDS011;22094;52.130;5.598;2023-07-29T06:54:06;5.53;;;4.18;;
23716;SDS011;22094;52.130;5.598;2023-07-29T06:56:32;6.60;;;4.10;;
23716;SDS011;22094;52.130;5.598;2023-07-29T06:58:57;8.70;;;4.78;;
23716;SDS011;22094;52.130;5.598;2023-07-29T07:01:23;5.47;;;4.80;;
23716;SDS011;22094;52.130;5.598;2023-07-29T07:03:49;6.82;;;4.97;;
23716;SDS011;22094;52.130;5.598;2023-07-29T07:06:14;6.68;;;4.78;;
23716;SDS011;22094;52.130;5.598;2023-07-29T07:08:40;8.05;;;5.50;;
23716;SDS011;22094;52.130;5.598;2023-07-29T07:11:06;7.25;;;5.18;;
23716;SDS011;22094;52.130;5.598;2023-07-29T07:13:33;5.97;;;5.05;;
23716;SDS011;22094;52.130;5.598;2023-07-29T07:15:59;6.72;;;5.40;;
23716;SDS011;22094;52.130;5.598;2023-07-29T07:18:24;6.07;;;5.28;;
23716;SDS011;22094;52.130;5.598;2023-07-29T07:20:50;6.88;;;5.13;;
23716;SDS011;22094;52.130;5.598;2023-07-29T07:23:17;6.13;;;5.47;;
23716;SDS011;22094;52.130;5.598;2023-07-29T07:25:43;6.68;;;5.75;;
23716;SDS011;22094;52.130;5.598;2023-07-29T07:28:09;7.47;;;5.93;;
23716;SDS011;22094;52.130;5.598;2023-07-29T07:30:35;7.07;;;6.38;;
23716;SDS011;22094;52.130;5.598;2023-07-29T07:33:06;6.85;;;5.70;;
23716;SDS011;22094;52.130;5.598;2023-07-29T07:35:31;8.20;;;6.10;;
23716;SDS011;22094;52.130;5.598;2023-07-29T07:37:57;7.75;;;6.95;;
23716;SDS011;22094;52.130;5.598;2023-07-29T07:40:24;8.30;;;6.30;;
23716;SDS011;22094;52.130;5.598;2023-07-29T07:42:50;8.15;;;6.53;;
23716;SDS011;22094;52.130;5.598;2023-07-29T07:45:16;9.23;;;7.00;;
23716;SDS011;22094;52.130;5.598;2023-07-29T07:47:43;7.65;;;6.65;;
23716;SDS011;22094;52.130;5.598;2023-07-29T07:50:09;7.60;;;6.90;;
23716;SDS011;22094;52.130;5.598;2023-07-29T07:52:34;7.80;;;6.50;;
23716;SDS011;22094;52.130;5.598;2023-07-29T07:55:00;8.55;;;6.45;;
23716;SDS011;22094;52.130;5.598;2023-07-29T07:57:26;6.80;;;5.50;;
23716;SDS011;22094;52.130;5.598;2023-07-29T07:59:51;7.60;;;5.40;;
23716;SDS011;22094;52.130;5.598;2023-07-29T08:02:18;7.05;;;5.70;;
23716;SDS011;22094;52.130;5.598;2023-07-29T08:04:51;8.77;;;6.47;;
23716;SDS011;22094;52.130;5.598;2023-07-29T08:07:16;10.77;;;5.43;;
23716;SDS011;22094;52.130;5.598;2023-07-29T08:09:42;5.65;;;5.10;;
23716;SDS011;22094;52.130;5.598;2023-07-29T08:12:08;5.47;;;4.97;;
23716;SDS011;22094;52.130;5.598;2023-07-29T08:14:43;5.60;;;4.40;;
23716;SDS011;22094;52.130;5.598;2023-07-29T08:17:14;5.30;;;4.63;;
23716;SDS011;22094;52.130;5.598;2023-07-29T08:19:51;5.05;;;4.53;;
23716;SDS011;22094;52.130;5.598;2023-07-29T08:22:19;7.70;;;4.70;;
23716;SDS011;22094;52.130;5.598;2023-07-29T08:24:47;4.65;;;4.03;;
23716;SDS011;22094;52.130;5.598;2023-07-29T08:27:13;6.78;;;4.75;;
23716;SDS011;22094;52.130;5.598;2023-07-29T08:29:39;6.85;;;4.55;;
23716;SDS011;22094;52.130;5.598;2023-07-29T08:32:04;6.53;;;4.15;;
23716;SDS011;22094;52.130;5.598;2023-07-29T08:34:30;4.55;;;3.83;;
23716;SDS011;22094;52.130;5.598;2023-07-29T08:36:56;4.30;;;3.90;;
23716;SDS011;22094;52.130;5.598;2023-07-29T08:39:22;5.25;;;3.50;;
23716;SDS011;22094;52.130;5.598;2023-07-29T08:41:57;4.70;;;3.80;;
23716;SDS011;22094;52.130;5.598;2023-07-29T08:44:30;3.85;;;3.35;;
23716;SDS011;22094;52.130;5.598;2023-07-29T08:47:02;3.50;;;3.17;;
23716;SDS011;22094;52.130;5.598;2023-07-29T08:49:28;5.75;;;3.05;;
23716;SDS011;22094;52.130;5.598;2023-07-29T08:51:56;3.13;;;2.80;;
23716;SDS011;22094;52.130;5.598;2023-07-29T08:54:22;4.32;;;3.03;;
23716;SDS011;22094;52.130;5.598;2023-07-29T08:56:48;3.25;;;2.53;;
23716;SDS011;22094;52.130;5.598;2023-07-29T08:59:14;3.38;;;2.33;;
23716;SDS011;22094;52.130;5.598;2023-07-29T09:01:42;4.22;;;2.40;;
23716;SDS011;22094;52.130;5.598;2023-07-29T09:04:07;5.10;;;2.58;;
23716;SDS011;22094;52.130;5.598;2023-07-29T09:06:33;3.22;;;2.58;;
23716;SDS011;22094;52.130;5.598;2023-07-29T09:09:00;3.78;;;2.15;;
23716;SDS011;22094;52.130;5.598;2023-07-29T09:11:27;3.95;;;2.20;;
23716;SDS011;22094;52.130;5.598;2023-07-29T09:13:53;3.38;;;2.55;;
23716;SDS011;22094;52.130;5.598;2023-07-29T09:16:22;3.92;;;2.13;;
23716;SDS011;22094;52.130;5.598;2023-07-29T09:18:48;3.63;;;2.15;;
23716;SDS011;22094;52.130;5.598;2023-07-29T09:21:15;3.38;;;2.50;;
23716;SDS011;22094;52.130;5.598;2023-07-29T09:23:43;5.88;;;2.60;;
23716;SDS011;22094;52.130;5.598;2023-07-29T09:26:10;3.55;;;3.08;;
23716;SDS011;22094;52.130;5.598;2023-07-29T09:28:37;4.03;;;3.13;;
23716;SDS011;22094;52.130;5.598;2023-07-29T09:31:03;3.60;;;3.30;;
23716;SDS011;22094;52.130;5.598;2023-07-29T09:33:32;5.68;;;3.08;;
23716;SDS011;22094;52.130;5.598;2023-07-29T09:36:00;5.55;;;3.25;;
23716;SDS011;22094;52.130;5.598;2023-07-29T09:38:27;3.67;;;2.92;;
23716;SDS011;22094;52.130;5.598;2023-07-29T09:40:56;5.57;;;3.20;;
23716;SDS011;22094;52.130;5.598;2023-07-29T09:43:29;4.20;;;3.10;;
23716;SDS011;22094;52.130;5.598;2023-07-29T09:45:59;4.07;;;2.92;;
23716;SDS011;22094;52.130;5.598;2023-07-29T09:48:32;5.28;;;2.80;;
23716;SDS011;22094;52.130;5.598;2023-07-29T09:50:58;4.03;;;3.10;;
23716;SDS011;22094;52.130;5.598;2023-07-29T09:53:24;3.03;;;2.70;;
23716;SDS011;22094;52.130;5.598;2023-07-29T09:55:50;3.70;;;3.00;;
23716;SDS011;22094;52.130;5.598;2023-07-29T09:58:19;4.70;;;3.25;;
23716;SDS011;22094;52.130;5.598;2023-07-29T10:00:51;3.53;;;3.22;;
23716;SDS011;22094;52.130;5.598;2023-07-29T10:03:17;5.10;;;3.50;;
23716;SDS011;22094;52.130;5.598;2023-07-29T10:05:45;4.60;;;3.40;;
23716;SDS011;22094;52.130;5.598;2023-07-29T10:08:11;3.78;;;3.10;;
23716;SDS011;22094;52.130;5.598;2023-07-29T10:10:38;4.03;;;3.10;;
23716;SDS011;22094;52.130;5.598;2023-07-29T10:13:06;2.97;;;2.70;;
23716;SDS011;22094;52.130;5.598;2023-07-29T10:15:32;3.03;;;2.75;;
23716;SDS011;22094;52.130;5.598;2023-07-29T10:17:58;4.18;;;3.20;;
23716;SDS011;22094;52.130;5.598;2023-07-29T10:20:25;4.28;;;3.40;;
23716;SDS011;22094;52.130;5.598;2023-07-29T10:22:50;4.68;;;3.45;;
23716;SDS011;22094;52.130;5.598;2023-07-29T10:25:21;5.55;;;3.17;;
23716;SDS011;22094;52.130;5.598;2023-07-29T10:27:55;4.30;;;3.90;;
23716;SDS011;22094;52.130;5.598;2023-07-29T10:30:24;5.82;;;3.92;;
23716;SDS011;22094;52.130;5.598;2023-07-29T10:32:50;6.03;;;3.97;;
23716;SDS011;22094;52.130;5.598;2023-07-29T10:35:18;4.97;;;4.38;;
23716;SDS011;22094;52.130;5.598;2023-07-29T10:37:44;5.15;;;4.35;;
23716;SDS011;22094;52.130;5.598;2023-07-29T10:40:10;6.45;;;4.47;;
23716;SDS011;22094;52.130;5.598;2023-07-29T10:42:37;4.50;;;4.10;;
23716;SDS011;22094;52.130;5.598;2023-07-29T10:45:19;12.85;;;4.57;;
23716;SDS011;22094;52.130;5.598;2023-07-29T10:47:45;4.28;;;3.88;;
23716;SDS011;22094;52.130;5.598;2023-07-29T10:50:20;4.75;;;4.03;;
23716;SDS011;22094;52.130;5.598;2023-07-29T10:52:50;3.42;;;3.13;;
23716;SDS011;22094;52.130;5.598;2023-07-29T10:58:07;5.72;;;3.30;;
23716;SDS011;22094;52.130;5.598;2023-07-29T11:00:34;4.93;;;3.22;;
23716;SDS011;22094;52.130;5.598;2023-07-29T11:03:01;4.22;;;3.15;;
23716;SDS011;22094;52.130;5.598;2023-07-29T11:05:47;4.60;;;2.92;;
23716;SDS011;22094;52.130;5.598;2023-07-29T11:08:22;2.78;;;2.58;;
23716;SDS011;22094;52.130;5.598;2023-07-29T11:10:58;3.20;;;2.90;;
23716;SDS011;22094;52.130;5.598;2023-07-29T11:13:32;4.88;;;3.33;;
23716;SDS011;22094;52.130;5.598;2023-07-29T11:16:01;4.88;;;3.70;;
23716;SDS011;22094;52.130;5.598;2023-07-29T11:18:28;4.18;;;2.92;;
23716;SDS011;22094;52.130;5.598;2023-07-29T11:20:59;2.95;;;2.70;;
23716;SDS011;22094;52.130;5.598;2023-07-29T11:23:29;2.72;;;2.50;;
23716;SDS011;22094;52.130;5.598;2023-07-29T11:25:58;2.75;;;2.55;;
23716;SDS011;22094;52.130;5.598;2023-07-29T11:28:25;2.60;;;2.40;;
23716;SDS011;22094;52.130;5.598;2023-07-29T11:30:51;3.53;;;2.40;;
23716;SDS011;22094;52.130;5.598;2023-07-29T11:33:22;2.78;;;2.58;;
23716;SDS011;22094;52.130;5.598;2023-07-29T11:35:49;2.70;;;2.50;;
23716;SDS011;22094;52.130;5.598;2023-07-29T11:38:16;2.75;;;2.55;;
23716;SDS011;22094;52.130;5.598;2023-07-29T11:40:42;3.25;;;2.92;;
23716;SDS011;22094;52.130;5.598;2023-07-29T11:43:08;3.33;;;3.00;;
23716;SDS011;22094;52.130;5.598;2023-07-29T11:45:34;3.95;;;3.25;;
23716;SDS011;22094;52.130;5.598;2023-07-29T11:48:08;5.05;;;3.33;;
23716;SDS011;22094;52.130;5.598;2023-07-29T11:50:34;3.22;;;2.92;;
23716;SDS011;22094;52.130;5.598;2023-07-29T11:53:00;5.53;;;3.38;;
23716;SDS011;22094;52.130;5.598;2023-07-29T11:55:26;4.93;;;3.92;;
23716;SDS011;22094;52.130;5.598;2023-07-29T11:57:51;4.13;;;3.72;;
23716;SDS011;22094;52.130;5.598;2023-07-29T12:00:18;7.32;;;5.00;;
23716;SDS011;22094;52.130;5.598;2023-07-29T12:02:47;6.82;;;4.97;;
23716;SDS011;22094;52.130;5.598;2023-07-29T12:05:14;6.05;;;5.25;;
23716;SDS011;22094;52.130;5.598;2023-07-29T12:07:41;8.70;;;5.20;;
23716;SDS011;22094;52.130;5.598;2023-07-29T12:10:08;6.38;;;5.78;;
23716;SDS011;22094;52.130;5.598;2023-07-29T12:12:47;8.95;;;5.25;;
23716;SDS011;22094;52.130;5.598;2023-07-29T12:15:22;6.65;;;5.60;;
23716;SDS011;22094;52.130;5.598;2023-07-29T12:17:52;5.18;;;4.68;;
23716;SDS011;22094;52.130;5.598;2023-07-29T12:20:21;3.95;;;3.63;;
23716;SDS011;22094;52.130;5.598;2023-07-29T12:22:51;4.22;;;3.72;;
23716;SDS011;22094;52.130;5.598;2023-07-29T12:25:17;4.68;;;3.70;;
23716;SDS011;22094;52.130;5.598;2023-07-29T12:27:44;7.22;;;3.33;;
23716;SDS011;22094;52.130;5.598;2023-07-29T12:30:10;4.43;;;3.53;;
23716;SDS011;22094;52.130;5.598;2023-07-29T12:32:42;3.00;;;2.70;;
23716;SDS011;22094;52.130;5.598;2023-07-29T12:35:11;5.80;;;3.20;;
23716;SDS011;22094;52.130;5.598;2023-07-29T12:37:38;3.38;;;2.90;;
23716;SDS011;22094;52.130;5.598;2023-07-29T12:40:07;4.95;;;2.92;;
23716;SDS011;22094;52.130;5.598;2023-07-29T12:42:34;2.70;;;2.50;;
23716;SDS011;22094;52.130;5.598;2023-07-29T12:45:00;3.78;;;2.72;;
23716;SDS011;22094;52.130;5.598;2023-07-29T12:47:26;4.30;;;2.70;;
23716;SDS011;22094;52.130;5.598;2023-07-29T12:49:51;2.92;;;2.72;;
23716;SDS011;22094;52.130;5.598;2023-07-29T12:52:17;1.90;;;1.80;;
23716;SDS011;22094;52.130;5.598;2023-07-29T12:54:43;2.10;;;1.90;;
23716;SDS011;22094;52.130;5.598;2023-07-29T12:57:09;1.88;;;1.77;;
23716;SDS011;22094;52.130;5.598;2023-07-29T12:59:35;1.98;;;1.70;;
23716;SDS011;22094;52.130;5.598;2023-07-29T13:02:01;2.72;;;1.75;;
23716;SDS011;22094;52.130;5.598;2023-07-29T13:04:26;2.10;;;1.70;;
23716;SDS011;22094;52.130;5.598;2023-07-29T13:06:52;2.03;;;1.83;;
23716;SDS011;22094;52.130;5.598;2023-07-29T13:09:18;1.58;;;1.48;;
23716;SDS011;22094;52.130;5.598;2023-07-29T13:11:44;1.92;;;1.58;;
23716;SDS011;22094;52.130;5.598;2023-07-29T13:14:10;1.58;;;1.48;;
23716;SDS011;22094;52.130;5.598;2023-07-29T13:16:36;1.58;;;1.48;;
23716;SDS011;22094;52.130;5.598;2023-07-29T13:19:01;2.33;;;1.30;;
23716;SDS011;22094;52.130;5.598;2023-07-29T13:21:27;1.50;;;1.40;;
23716;SDS011;22094;52.130;5.598;2023-07-29T13:23:53;1.73;;;1.60;;
23716;SDS011;22094;52.130;5.598;2023-07-29T13:26:19;4.50;;;1.50;;
23716;SDS011;22094;52.130;5.598;2023-07-29T13:28:45;1.60;;;1.50;;
23716;SDS011;22094;52.130;5.598;2023-07-29T13:31:10;1.42;;;1.33;;
23716;SDS011;22094;52.130;5.598;2023-07-29T13:33:37;2.95;;;1.40;;
23716;SDS011;22094;52.130;5.598;2023-07-29T13:36:04;1.80;;;1.70;;
23716;SDS011;22094;52.130;5.598;2023-07-29T13:38:30;1.90;;;1.50;;
23716;SDS011;22094;52.130;5.598;2023-07-29T13:40:56;2.17;;;1.70;;
23716;SDS011;22094;52.130;5.598;2023-07-29T13:43:22;1.80;;;1.70;;
23716;SDS011;22094;52.130;5.598;2023-07-29T13:45:48;2.22;;;2.03;;
23716;SDS011;22094;52.130;5.598;2023-07-29T13:48:15;2.20;;;2.00;;
23716;SDS011;22094;52.130;5.598;2023-07-29T13:50:41;2.80;;;2.33;;
23716;SDS011;22094;52.130;5.598;2023-07-29T13:53:11;2.35;;;2.08;;
23716;SDS011;22094;52.130;5.598;2023-07-29T13:55:37;2.33;;;2.13;;
23716;SDS011;22094;52.130;5.598;2023-07-29T13:58:03;2.83;;;2.63;;
23716;SDS011;22094;52.130;5.598;2023-07-29T14:00:29;3.10;;;2.80;;
23716;SDS011;22094;52.130;5.598;2023-07-29T14:02:55;3.40;;;2.80;;
23716;SDS011;22094;52.130;5.598;2023-07-29T14:05:21;3.13;;;2.92;;
23716;SDS011;22094;52.130;5.598;2023-07-29T14:07:47;3.55;;;3.22;;
23716;SDS011;22094;52.130;5.598;2023-07-29T14:10:15;4.80;;;3.22;;
23716;SDS011;22094;52.130;5.598;2023-07-29T14:12:40;2.63;;;2.42;;
23716;SDS011;22094;52.130;5.598;2023-07-29T14:15:07;3.88;;;2.55;;
23716;SDS011;22094;52.130;5.598;2023-07-29T14:17:33;3.15;;;2.80;;
23716;SDS011;22094;52.130;5.598;2023-07-29T14:19:59;3.17;;;2.97;;
23716;SDS011;22094;52.130;5.598;2023-07-29T14:22:25;2.78;;;2.45;;
23716;SDS011;22094;52.130;5.598;2023-07-29T14:24:51;2.20;;;2.00;;
23716;SDS011;22094;52.130;5.598;2023-07-29T14:27:16;3.65;;;2.63;;
23716;SDS011;22094;52.130;5.598;2023-07-29T14:29:42;3.88;;;2.80;;
23716;SDS011;22094;52.130;5.598;2023-07-29T14:32:08;2.95;;;2.42;;
23716;SDS011;22094;52.130;5.598;2023-07-29T14:34:34;2.70;;;2.50;;
23716;SDS011;22094;52.130;5.598;2023-07-29T14:37:00;2.20;;;2.00;;
23716;SDS011;22094;52.130;5.598;2023-07-29T14:39:26;2.72;;;2.30;;
23716;SDS011;22094;52.130;5.598;2023-07-29T14:41:52;3.58;;;2.60;;
23716;SDS011;22094;52.130;5.598;2023-07-29T14:44:18;4.03;;;2.50;;
23716;SDS011;22094;52.130;5.598;2023-07-29T14:46:44;2.85;;;2.00;;
23716;SDS011;22094;52.130;5.598;2023-07-29T14:49:10;2.65;;;2.00;;